St. Pete Clearwater International Airport

Time Wind Weather Visibility Flight Category Ceiling (AGL FT) Raw Text
2024-07-19 21:09:00Z VRB° at 4 kts, Gusting to 29 kts Heavy Rain, Gusty Winds 10+ VFR Clouds BROKEN at 3400, BROKEN at 5000, OVERCAST at 9000, OVERCAST at 6000 KPIE 192109Z VRB04G29KT 10SM +RA BKN034 BKN050 OVC090 28/23 A3003 RMK AO2 PK WND 21029/2103 LTG DSNT NE-S TSB05E09 P0036 T02830228
2024-07-19 20:53:00Z 210° at 11 kts Thunderstorms 10+ VFR Clouds SCATTERED at 5000, BROKEN at 7000, OVERCAST at 9000, BROKEN at 25000 KPIE 192053Z 21011KT 10SM TSRA SCT050 BKN070 OVC090 29/26 A3003 RMK AO2 LTG DSNT E-S RAB21 TSB28 SLP169 P0032 60032 T02890256 56018
2024-07-19 20:27:00Z 210° at 11 kts Heavy Rain 10+ VFR Clouds SCATTERED at 5500, BROKEN at 7000, BROKEN at 9000, SCATTERED at 18000 KPIE 192027Z 21011KT 10SM +RA SCT055 BKN070 BKN090 29/24 A3004 RMK AO2 RAB21 P0009 T02890239
2024-07-19 00:20:00Z 40° at 8 kts, Gusting to 17 kts Heavy Rain 10+ VFR Clouds SCATTERED at 2900, BROKEN at 3500, OVERCAST at 7500, FEW at 3000 KPIE 190020Z 04008G17KT 10SM +RA SCT029 BKN035 OVC075 26/24 A3006 RMK AO2 LTG DSNT NE AND E RAB06 P0024 T02610239
2024-07-18 18:33:00Z Winds Calm Thunderstorms 10+ VFR Clouds SCATTERED at 3500, BROKEN at 4500, OVERCAST at 4700, BROKEN at 30000 KPIE 181833Z 00000KT 10SM TS SCT035 BKN045 33/22 A3005 RMK AO2 TSB27 T03280217
2024-07-16 17:35:00Z 200° at 10 kts Thunderstorms 2.5 IFR Clouds SCATTERED at 5000, BROKEN at 7500, OVERCAST at 9500, OVERCAST at 7100 KPIE 161735Z 20010KT 2 1/2SM TSRA BR SCT050 BKN075 OVC095 24/22 A3008 RMK AO2 PK WND 20027/1710 LTG DSNT ALQDS RAB08 P0026 T02390217
2024-07-16 17:14:00Z 210° at 16 kts, Gusting to 27 kts Heavy Thunderstorms, Gusty Winds 1.5 IFR Clouds FEW at 3400, SCATTERED at 8000, BROKEN at 12000, BROKEN at 38000 KPIE 161714Z 21016G27KT 1 1/2SM +TSRA FEW034 SCT080 BKN120 24/21 A3010 RMK AO2 PK WND 20027/1710 LTG DSNT N-SE RAB08 P0010 T02440211
2024-07-16 16:53:00Z VRB° at 3 kts Thunderstorms 10+ VFR Clouds CLR at 3800, FEW at 6500, BROKEN at 11000, BROKEN at 25000 KPIE 161653Z VRB03KT 10SM TS CLR 31/25 A3008 RMK AO2 LTG DSNT ALQDS TSB23 SLP187 T03110250
2024-07-16 16:29:00Z Not Available Thunderstorms 10+ VFR Clouds CLR at 2700, OVERCAST at 2400, OVERCAST at 9500, BROKEN at 17000 KPIE 161629Z 10SM TS CLR 32/26 A3007 RMK AO2 LTG DSNT SE AND S TSB23 T03220261
2024-07-15 21:28:00Z 130° at 11 kts Thunderstorms 10+ VFR Clouds BROKEN at 4400, BROKEN at 7000, BROKEN at 8500, BROKEN at 10000 KPIE 152128Z 13011KT 10SM TS BKN044 BKN070 BKN085 31/25 A3002 RMK AO2 TSB22 T03060250
2024-07-14 23:25:00Z 120° at 18 kts, Gusting to 29 kts Heavy Thunderstorms, Gusty Winds 2.5 IFR Clouds SCATTERED at 2300, BROKEN at 3200, OVERCAST at 6000, BROKEN at 8000 KPIE 142325Z 12018G29KT 2 1/2SM +TSRA BR SCT023 BKN032 OVC060 25/23 A3016 RMK AO2 PK WND 10039/2259 LTG DSNT ALQDS RAB01 P0015 T02500233
2024-07-14 22:53:00Z 110° at 12 kts Thunderstorms 10+ VFR Clouds BROKEN at 6000, BROKEN at 22000, SCATTERED at 24000, SCATTERED at 30000 KPIE 142253Z 11012KT 10SM TS BKN060 29/24 A3011 RMK AO2 LTG DSNT ALQDS TSB46 SLP197 T02890239
2024-07-14 22:46:00Z 120° at 8 kts Thunderstorms 10+ VFR Clouds SCATTERED at 6000, BROKEN at 3600, OVERCAST at 6000, OVERCAST at 6000 KPIE 142246Z 12008KT 10SM TS SCT060 28/24 A3010 RMK AO2 LTG DSNT ALQDS TSB46 T02830244
2024-07-13 23:53:00Z 90° at 7 kts Thunderstorms 10+ VFR Clouds FEW at 4200, SCATTERED at 10000, SCATTERED at 20000, OVERCAST at 20000 KPIE 132353Z 09007KT 10SM TS FEW042 SCT100 32/24 A3017 RMK AO2 LTG DSNT E TSB49 SLP215 T03170244 10333 20311 53010
2024-07-13 17:33:00Z 260° at 6 kts Thunderstorms 10+ VFR Clouds BROKEN at 4100, SCATTERED at 2800, BROKEN at 6500, BROKEN at 7000 KPIE 131733Z 26006KT 10SM TS BKN041 32/23 A3019 RMK AO2 LTG DSNT E AND SE TSB27 T03170233
2024-07-11 13:22:00Z 30° at 11 kts, Gusting to 17 kts Light Rain 6 VFR Clouds SCATTERED at 2600, BROKEN at 3200, BROKEN at 2000, OVERCAST at 9000 KPIE 111322Z 03011G17KT 6SM -RA BR SCT026 BKN032 27/26 A3001 RMK AO2 LTG DSNT NW RAB07 P0001 T02720256
2024-07-09 03:53:00Z 20° at 5 kts Thunderstorms 4 MVFR Clouds FEW at 8000, BROKEN at 3900, BROKEN at 5500, BROKEN at 25000 KPIE 090353Z AUTO 02005KT 4SM TS BR FEW080 27/24 A3008 RMK AO2 LTG DSNT SE AND NW RAE11 TSE12B50 SLP184 P0000 T02670244
2024-07-09 02:53:00Z 350° at 5 kts Thunderstorms 4 MVFR Clouds BROKEN at 2900, OVERCAST at 3700, OVERCAST at 25000, BROKEN at 25000 KPIE 090253Z AUTO 35005KT 4SM TSRA BR BKN029 OVC037 26/25 A3007 RMK AO2 LTG DSNT E AND SE AND NW RAB24 TSB03 SLP184 P0054 60054 T02610250 53016
2024-07-09 02:09:00Z 40° at 5 kts Thunderstorms 10+ VFR Clouds FEW at 2800, FEW at 4800, FEW at 5000, BROKEN at 15000 KPIE 090209Z 04005KT 10SM TS FEW028 FEW048 29/24 A3006 RMK AO2 LTG DSNT NW-E TSB03 T02890244
2024-07-08 00:03:00Z 210° at 6 kts Thunderstorms 10+ VFR Clouds FEW at 5000, BROKEN at 6500, OVERCAST at 9500 KPIE 080003Z 21006KT 10SM TS FEW050 BKN065 OVC095 32/26 A2997 RMK AO2 LTG DSNT NE TSB2357 T03170261
2024-07-07 20:53:00Z 240° at 8 kts Thunderstorms 10+ VFR Clouds CLR at 6000, BROKEN at 4700, BROKEN at 4300, BROKEN at 25000 KPIE 072053Z 24008KT 10SM TS CLR 34/26 A2995 RMK AO2 LTG DSNT SE TSB47 SLP143 T03390261 56013
2024-07-06 20:53:00Z 250° at 9 kts Thunderstorms 10+ VFR Clouds FEW at 2700, SCATTERED at 4100, BROKEN at 4900, BROKEN at 25000 KPIE 062053Z 25009KT 10SM TS FEW027 SCT041 BKN049 30/24 A2995 RMK AO2 LTG DSNT N AND NE AND S SLP142 T03000244 55003
2024-07-05 17:53:00Z 320° at 13 kts Thunderstorms 10+ MVFR Clouds BROKEN at 2800, BROKEN at 5500, BROKEN at 10000, OVERCAST at 30000 KPIE 051753Z 32013KT 10SM TS BKN028 31/24 A2993 RMK AO2 TSB44 SLP134 T03060239 10350 20289 57007
2024-07-01 16:21:00Z 200° at 10 kts Heavy Rain 2.5 IFR Clouds FEW at 3000, OVERCAST at 3800, OVERCAST at 1500 KPIE 011621Z 20010KT 2 1/2SM +RA BR FEW030 OVC038 26/25 A3002 RMK AO2 RAB1554 P0012 T02610250
2024-06-30 18:38:00Z 320° at 11 kts, Gusting to 21 kts Thunderstorms, Gusty Winds 1.5 IFR Clouds FEW at 1800, BROKEN at 4900, OVERCAST at 9000, BROKEN at 22000 KPIE 301838Z 32011G21KT 1 1/2SM TSRA FEW018 BKN049 OVC090 28/25 A3009 RMK AO2 LTG DSNT E AND SE RAB38 TSB19 P0009 T02780250
2024-06-30 18:25:00Z 230° at 6 kts Thunderstorms 10+ VFR Clouds FEW at 5000, FEW at 6000, OVERCAST at 9000 KPIE 301825Z 23006KT 10SM TS FEW050 FEW060 OVC090 29/26 A3008 RMK AO2 LTG DSNT E AND SE TSB19 T02940256
2024-06-29 18:21:00Z 70° at 14 kts, Gusting to 19 kts Thunderstorms, Gusty Winds 10+ VFR Clouds FEW at 3800, BROKEN at 4700, OVERCAST at 5500, OVERCAST at 3200 KPIE 291821Z 07014G19KT 10SM TS FEW038 BKN047 27/24 A3015 RMK AO2 LTG DSNT N-SE TSB20 T02720244
2024-06-29 16:53:00Z 240° at 15 kts Thunderstorms 10+ VFR Clouds SCATTERED at 3000, OVERCAST at 2600, BROKEN at 4200, OVERCAST at 5000 KPIE 291653Z 24015KT 10SM TS SCT030 28/25 A3013 RMK AO2 LTG DSNT E AND SE AND W TSB07 SLP204 T02830250
2024-06-29 16:13:00Z 80° at 5 kts Thunderstorms 10+ VFR Clouds CLR at 2200, BROKEN at 2800, OVERCAST at 3600, OVERCAST at 19000 KPIE 291613Z 08005KT 10SM TS CLR 31/25 A3013 RMK AO2 LTG DSNT S-W TSB07 T03060250
2024-06-29 00:22:00Z 120° at 19 kts, Gusting to 25 kts Light Thunderstorms, Gusty Winds 5 MVFR Clouds SCATTERED at 2200, BROKEN at 5500, OVERCAST at 9000, OVERCAST at 29000 KPIE 290022Z 12019G25KT 5SM -TSRA BR SCT022 BKN055 OVC090 24/24 A3005 RMK AO2 WSHFT 2351 LTG DSNT E AND SE P0012 T02440239
2024-06-29 00:14:00Z 110° at 17 kts, Gusting to 23 kts Light Thunderstorms, Gusty Winds 2 IFR Clouds SCATTERED at 1600, BROKEN at 4600, OVERCAST at 9000, OVERCAST at 8300 KPIE 290014Z 11017G23KT 2SM -TSRA BR SCT016 BKN046 OVC090 25/24 A3006 RMK AO2 WSHFT 2351 LTG DSNT NE-SE P0012 T02500244
2024-06-27 20:39:00Z 220° at 10 kts Heavy Rain 1.5 IFR Clouds SCATTERED at 1900, BROKEN at 2700, BROKEN at 3400, BROKEN at 25000 KPIE 272039Z 22010KT 1 1/2SM +RA SCT019 BKN027 BKN034 29/25 A2990 RMK AO2 RAB38 P0011 T02890250
2024-06-25 14:53:00Z 280° at 9 kts Thunderstorms 2 IFR Clouds SCATTERED at 2200, BROKEN at 9000, OVERCAST at 11000, BROKEN at 25000 KPIE 251453Z 28009KT 2SM TSRA BR SCT022 BKN090 OVC110 24/24 A2999 RMK AO2 LTG DSNT S RAB37 TSB13 SLP156 P0004 60004 T02440239 53015
2024-06-25 14:16:00Z 40° at 4 kts Thunderstorms 10+ MVFR Clouds BROKEN at 1600, OVERCAST at 1500, BROKEN at 10000, OVERCAST at 19000 KPIE 251416Z 04004KT 10SM TS BKN016 29/25 A2998 RMK AO2 LTG DSNT SW TSB13 T02940250
2024-06-25 03:03:00Z 160° at 17 kts, Gusting to 25 kts Heavy Rain, Gusty Winds 0.75 LIFR Clouds SCATTERED at 1400, OVERCAST at 2400, OVERCAST at 11000 KPIE 250303Z AUTO 16017G25KT 3/4SM +RA BR SCT014 OVC024 25/24 A2996 RMK AO2 WSHFT 0242 LTG DSNT E RAB0257 P0037 T02500244 RVRNO
2024-06-23 16:37:00Z 250° at 13 kts, Gusting to 20 kts Thunderstorms, Gusty Winds 10+ VFR Clouds FEW at 2700, BROKEN at 3700, OVERCAST at 6500, BROKEN at 8500 KPIE 231637Z 25013G20KT 10SM TS FEW027 BKN037 OVC065 27/24 A3004 RMK AO2 WSHFT 1617 TSB08 T02670239
2024-06-23 16:14:00Z VRB° at 6 kts Thunderstorms 10+ VFR Clouds BROKEN at 3800, OVERCAST at 9500, BROKEN at 7500, BROKEN at 35000 KPIE 231614Z VRB06KT 10SM TS BKN038 31/22 A3004 RMK AO2 LTG DSNT N AND NW TSB08 T03060222
2024-06-22 23:21:00Z 50° at 6 kts Light Rain 4 MVFR Clouds FEW at 5500, BROKEN at 9000, OVERCAST at 11000, OVERCAST at 3000 KPIE 222321Z 05006KT 4SM -RA BR FEW055 BKN090 OVC110 26/25 A3002 RMK AO2 TSE15 P0002 T02610250
2024-06-22 22:23:00Z 170° at 13 kts Thunderstorms 10+ VFR Clouds FEW at 8000, SCATTERED at 11000, OVERCAST at 6000, BROKEN at 15000 KPIE 222223Z 17013KT 10SM TS FEW080 SCT110 30/23 A3001 RMK AO2 LTG DSNT NE AND E TSB17 T03000233
2024-06-19 17:06:00Z 100° at 12 kts, Gusting to 24 kts Light Rain, Gusty Winds 5 MVFR Clouds FEW at 2500, BROKEN at 3700, BROKEN at 5000, SCATTERED at 13000 KPIE 191706Z 10012G24KT 5SM -RA BR FEW025 BKN037 BKN050 26/25 A3005 RMK AO2 PK WND 11027/1655 LTG DSNT S RAB1656 P0001 T02610250
2024-06-17 00:39:00Z 160° at 11 kts Thunderstorms 3 MVFR Clouds SCATTERED at 4200, BROKEN at 5000, OVERCAST at 8500, OVERCAST at 3600 KPIE 170039Z 16011KT 3SM TSRA BR SCT042 BKN050 OVC085 23/22 A3004 RMK AO2 PK WND 12026/0015 LTG DSNT S RAB12 TSE21B24 P0018 T02330222
2024-06-16 23:53:00Z 40° at 12 kts, Gusting to 17 kts Thunderstorms 10+ VFR Clouds FEW at 4700, SCATTERED at 6000, BROKEN at 5000, BROKEN at 25000 KPIE 162353Z 04012G17KT 10SM TS FEW047 SCT060 31/23 A2999 RMK AO2 LTG DSNT N-SE TSB44 SLP156 T03110233 10344 20311 53008
2024-06-15 18:13:00Z 260° at 10 kts Thunderstorms 2 IFR Clouds BROKEN at 2100, OVERCAST at 3900, OVERCAST at 2100 KPIE 151813Z 26010KT 2SM TSRA BR BKN021 OVC039 25/25 A2999 RMK AO2 LTG DSNT NE P0052 T02500250
2024-06-14 23:14:00Z Not Available Thunderstorms 10+ MVFR Clouds SCATTERED at 1500, BROKEN at 2200, BROKEN at 4600, BROKEN at 22000 KPIE 142314Z 10SM TS SCT015 BKN022 BKN046 27/25 A2987 RMK AO2 LTG DSNT N AND NE T02720250
2024-06-14 22:24:00Z 230° at 14 kts, Gusting to 19 kts Thunderstorms, Gusty Winds 10+ VFR Clouds FEW at 3900, SCATTERED at 5000, BROKEN at 7500, BROKEN at 25000 KPIE 142224Z 23014G19KT 10SM TS FEW039 SCT050 BKN075 29/24 A2985 RMK AO2 LTG DSNT NE AND E TSE02B18 T02940244
2024-06-14 21:53:00Z 200° at 17 kts, Gusting to 21 kts Thunderstorms, Gusty Winds 10+ VFR Clouds OVERCAST at 3200, SCATTERED at 9000, SCATTERED at 11000, BROKEN at 20000 KPIE 142153Z 20017G21KT 10SM TS OVC032 28/22 A2986 RMK AO2 TSB47 SLP111 T02830222
2024-06-14 02:03:00Z 300° at 6 kts Thunderstorms 4 MVFR Clouds OVERCAST at 8500, OVERCAST at 1900, SCATTERED at 7800, OVERCAST at 10000 KPIE 140203Z AUTO 30006KT 4SM TSRA BR OVC085 26/25 A2986 RMK AO2 TSB0157 P0002 T02560250
2024-06-13 23:16:00Z 250° at 9 kts Light Rain 2.5 IFR Clouds SCATTERED at 3900, BROKEN at 7500, OVERCAST at 11000, BROKEN at 13000 KPIE 132316Z 25009KT 2 1/2SM -RA BR SCT039 BKN075 OVC110 29/27 A2985 RMK AO2 RAB05 P0003 T02890267
2024-06-13 07:53:00Z 70° at 3 kts Light Rain 6 VFR Clouds SCATTERED at 1500, BROKEN at 3100, OVERCAST at 4500, BROKEN at 3100 KPIE 130753Z AUTO 07003KT 6SM -RA BR SCT015 BKN031 OVC045 27/26 A2984 RMK AO2 RAB36 SLP103 P0008 T02670261
2024-06-12 10:41:00Z 320° at 4 kts Light Rain 3 MVFR Clouds FEW at 900, BROKEN at 2800, OVERCAST at 3800 KPIE 121041Z 32004KT 3SM -RA BR FEW009 BKN028 OVC038 25/25 A2986 RMK AO2 RAB11 P0006 T02500250
2024-06-12 04:53:00Z 130° at 15 kts Light Rain 3 MVFR Clouds FEW at 500, BROKEN at 3500, OVERCAST at 7000, BROKEN at 9500 KPIE 120453Z 13015KT 3SM -RA BR FEW005 BKN035 OVC070 25/25 A2983 RMK AO2 PK WND 12026/0432 LTG DSNT SE RAB35 SLP100 P0003 T02500250 403110250 $
2024-06-11 20:53:00Z 110° at 4 kts Heavy Rain 1 IFR Clouds OVERCAST at 700, BROKEN at 4400, OVERCAST at 11000, OVERCAST at 26000 KPIE 112053Z 11004KT 1SM +RA BR OVC007 26/26 A2984 RMK AO2 SLP103 P0012 60051 T02610261 56011 RVRNO
2024-06-11 19:53:00Z 240° at 3 kts Heavy Rain 3 IFR Clouds OVERCAST at 700, SCATTERED at 7000, OVERCAST at 9000, BROKEN at 25000 KPIE 111953Z 24003KT 3SM +RA BR OVC007 26/26 A2985 RMK AO2 SLP107 P0032 T02610256
2024-06-11 19:02:00Z 250° at 3 kts Heavy Rain 3 MVFR Clouds FEW at 1800, BROKEN at 2600, OVERCAST at 4800, OVERCAST at 5500 KPIE 111902Z 25003KT 3SM +RA BR FEW018 BKN026 OVC048 26/26 A2986 RMK AO2 P0010 T02560256
2024-06-11 16:56:00Z 200° at 12 kts, Gusting to 22 kts Light Rain, Gusty Winds 3 MVFR Clouds FEW at 1500, BROKEN at 2900, OVERCAST at 9500, BROKEN at 8000 KPIE 111656Z 20012G22KT 3SM -RA BR FEW015 BKN029 OVC095 26/25 A2985 RMK AO2 LTG DSNT W-N P0000 T02560250
2024-06-11 16:38:00Z 190° at 23 kts, Gusting to 35 kts Very Gusty Winds 2 IFR Clouds BROKEN at 2200, BROKEN at 3600, BROKEN at 6000, OVERCAST at 25000 KPIE 111638Z 19023G35KT 2SM VCTS -RA BR BKN022 BKN036 BKN060 26/26 A2986 RMK AO2 PK WND 18035/1635 LTG DSNT N AND NW RAB17 P0006 T02610256
2024-06-11 05:53:00Z 190° at 6 kts Light Rain 6 VFR Clouds FEW at 4200, BROKEN at 7000, OVERCAST at 8500, OVERCAST at 4700 KPIE 110553Z AUTO 19006KT 6SM -RA BR FEW042 BKN070 OVC085 26/26 A2988 RMK AO2 RAB15 SLP116 P0001 60022 T02560256 10306 20233 55002
2024-06-11 02:37:00Z 210° at 8 kts Thunderstorms 10+ VFR Clouds SCATTERED at 4800, BROKEN at 6000, BROKEN at 7500, OVERCAST at 9800 KPIE 110237Z AUTO 21008KT 10SM TS SCT048 BKN060 BKN075 27/24 A2987 RMK AO2 LTG DSNT NE-S RAB07E16 TSB36 P0000 T02720239
2024-05-15 13:06:00Z 240° at 5 kts Light Thunderstorms 3 MVFR Clouds FEW at 1600, BROKEN at 6500, OVERCAST at 10000, BROKEN at 4700 KPIE 151306Z 24005KT 3SM -TSRA BR FEW016 BKN065 OVC100 25/25 A2991 RMK AO2 LTG DSNT SW P0007 T02500250
2024-05-15 12:53:00Z 270° at 7 kts Heavy Thunderstorms 1.25 IFR Clouds SCATTERED at 3600, BROKEN at 4800, OVERCAST at 10000, FEW at 1500 KPIE 151253Z 27007KT 1 1/4SM +TSRA BR SCT036 BKN048 OVC100 25/25 A2991 RMK AO2 LTG DSNT E-SW RAE20B24 TSE11B13E14 SLP126 P0014 T02500250
2024-05-15 11:53:00Z 290° at 10 kts Light Thunderstorms 4 MVFR Clouds BROKEN at 1200, BROKEN at 2200, OVERCAST at 6000, BROKEN at 25000 KPIE 151153Z 29010KT 4SM -TSRA BR BKN012 BKN022 OVC060 26/26 A2989 RMK AO2 LTG DSNT ALQDS RAE22B37 TSB03E29B33 SLP120 P0032 60033 70064 T02610256 10272 20250 53010
2024-05-15 11:23:00Z 240° at 10 kts Thunderstorms 10+ MVFR Clouds SCATTERED at 1300, BROKEN at 2000, OVERCAST at 2800, BROKEN at 3500 KPIE 151123Z 24010KT 10SM TS SCT013 BKN020 OVC028 26/24 A2987 RMK AO2 LTG DSNT ALQDS RAE22 TSB03 P0030 T02560244
2024-05-15 11:16:00Z 260° at 7 kts Light Thunderstorms 2 IFR Clouds FEW at 1300, BROKEN at 2200, OVERCAST at 3800, FEW at 1500 KPIE 151116Z 26007KT 2SM -TSRA BR FEW013 BKN022 OVC038 26/24 A2987 RMK AO2 VIS 3/4V5 LTG DSNT ALQDS TSB03 P0030 T02560244
2024-05-14 15:37:00Z 330° at 20 kts, Gusting to 39 kts Very Gusty Winds 0.25 LIFR Clouds BROKEN at 1100, BROKEN at 2100, OVERCAST at 2800 KPIE 141537Z 33020G39KT 1/4SM +TSRA FG BKN011 BKN021 OVC028 23/22 A2999 RMK AO2 PK WND 30039/1530 WSHFT 1519 LTG DSNT ALQDS RAB29 TSB12 P0031 T02280217 RVRNO
2024-05-14 15:17:00Z 230° at 14 kts, Gusting to 23 kts Thunderstorms, Gusty Winds 10+ MVFR Clouds SCATTERED at 2100, BROKEN at 2700, BROKEN at 3300 KPIE 141517Z 23014G23KT 10SM TS SCT021 BKN027 BKN033 29/25 A2996 RMK AO2 LTG DSNT ALQDS TSB12 T02890250
2024-04-11 15:56:00Z 190° at 26 kts, Gusting to 36 kts Thunderstorms, Very Gusty Winds 4 IFR Clouds OVERCAST at 900, BROKEN at 3200, OVERCAST at 8500, OVERCAST at 30000 KPIE 111556Z 19026G36KT 4SM TS BR OVC009 24/24 A2980 RMK AO2 PK WND 19036/1555 LTG DSNT SW-N P0001 T02440239
2024-04-11 14:18:00Z 190° at 24 kts, Gusting to 40 kts Very Gusty Winds 10+ MVFR Clouds BROKEN at 1400, OVERCAST at 1900, OVERCAST at 6000 KPIE 111418Z 19024G40KT 10SM BKN014 OVC019 26/23 A2980 RMK AO2 PK WND 18040/1405 T02610233
2024-04-11 12:53:00Z 180° at 22 kts, Gusting to 35 kts Very Gusty Winds 10+ MVFR Clouds BROKEN at 1600, OVERCAST at 2600, OVERCAST at 8500, OVERCAST at 25000 KPIE 111253Z 18022G35KT 10SM BKN016 OVC026 25/23 A2981 RMK AO2 PK WND 16040/1225 SLP094 T02500228
2024-04-03 19:26:00Z 300° at 15 kts, Gusting to 22 kts Heavy Thunderstorms, Gusty Winds 2 IFR Clouds BROKEN at 800, BROKEN at 1700, OVERCAST at 5500, OVERCAST at 25000 KPIE 031926Z 30015G22KT 2SM R18/4000VP6000FT +TSRA BR BKN008 BKN017 OVC055 19/19 A2972 RMK AO2 WSHFT 1840 LTG DSNT E-SW TSB22 P0051 T01890189
2024-04-03 17:53:00Z 210° at 22 kts, Gusting to 38 kts Very Gusty Winds 10+ MVFR Clouds OVERCAST at 1000, OVERCAST at 7500, OVERCAST at 3800, BROKEN at 25000 KPIE 031753Z 21022G38KT 10SM OVC010 25/23 A2972 RMK AO2 PK WND 20043/1703 LTG DSNT N AND NW SLP064 T02500233 10272 20239 58014
2024-04-03 16:53:00Z 210° at 24 kts, Gusting to 44 kts Very Gusty Winds 10+ MVFR Clouds BROKEN at 1400, BROKEN at 2400, BROKEN at 7000, BROKEN at 25000 KPIE 031653Z 21024G44KT 10SM BKN014 BKN024 BKN070 26/23 A2972 RMK AO2 PK WND 21044/1648 SLP062 T02610233
2024-04-03 15:53:00Z 210° at 25 kts, Gusting to 43 kts Very Gusty Winds 10+ MVFR Clouds BROKEN at 1300, OVERCAST at 7000, OVERCAST at 9000, BROKEN at 25000 KPIE 031553Z 21025G43KT 10SM BKN013 OVC070 26/23 A2977 RMK AO2 PK WND 21043/1551 SLP079 T02560233
2024-03-28 12:53:00Z 230° at 6 kts Light Rain 4 MVFR Clouds BROKEN at 1500, OVERCAST at 2200, OVERCAST at 5500, OVERCAST at 3700 KPIE 281253Z 23006KT 4SM -RA BR BKN015 OVC022 21/21 A2987 RMK AO2 RAB26 SLP113 P0028 T02060206
2024-03-27 21:10:00Z 10° at 7 kts Heavy Thunderstorms 1 IFR Clouds SCATTERED at 700, BROKEN at 2100, OVERCAST at 5000, SCATTERED at 13000 KPIE 272110Z 01007KT 1SM R18/2800V5500FT +TSRA BR SCT007 BKN021 OVC050 19/19 A2997 RMK AO2 LTG DSNT ALQDS TSB01 P0041 T01890189
2024-03-22 23:53:00Z 160° at 30 kts, Gusting to 41 kts Light Rain, Very Gusty Winds 10+ VFR Clouds FEW at 6000, BROKEN at 9000, OVERCAST at 11000, BROKEN at 16000 KPIE 222353Z 16030G41KT 10SM -RA FEW060 BKN090 OVC110 19/19 A2981 RMK AO2 PK WND 16041/2353 PRESFR SLP095 P0004 60005 T01890189 10228 20189 58018
2024-03-22 21:53:00Z 180° at 26 kts, Gusting to 39 kts Very Gusty Winds 10+ VFR Clouds FEW at 9500, BROKEN at 12000, OVERCAST at 11000, OVERCAST at 14000 KPIE 222153Z 18026G39KT 10SM FEW095 BKN120 21/19 A2982 RMK AO2 PK WND 19039/2147 SLP098 T02060189
2024-03-22 14:53:00Z 140° at 20 kts, Gusting to 38 kts Light Rain, Very Gusty Winds 10+ MVFR Clouds BROKEN at 1200, OVERCAST at 1000, OVERCAST at 9000, BROKEN at 16000 KPIE 221453Z 14020G38KT 10SM -RA BKN012 19/18 A2987 RMK AO2 PK WND 14038/1450 RAB43 SLP115 P0000 60000 T01890178 58040
2024-03-22 07:17:00Z 160° at 13 kts, Gusting to 23 kts Heavy Rain, Gusty Winds 10+ MVFR Clouds FEW at 1300, BROKEN at 2500, OVERCAST at 4200 KPIE 220717Z AUTO 16013G23KT 10SM R18/4500VP6000FT +RA FEW013 BKN025 OVC042 19/19 A3002 RMK AO2 P0035 T01890189
2024-03-22 05:53:00Z 150° at 13 kts, Gusting to 19 kts Heavy Rain, Gusty Winds 10+ VFR Clouds FEW at 2400, BROKEN at 3600, OVERCAST at 4200, FEW at 1500 KPIE 220553Z AUTO 15013G19KT 10SM R18/6000VP6000FT +RA FEW024 BKN036 OVC042 20/19 A3001 RMK AO2 PK WND 15027/0510 RAB0454E16B45 SLP163 P0007 60007 T02000194 10222 20200 58008
2024-03-10 06:39:00Z 280° at 13 kts, Gusting to 21 kts Heavy Rain, Gusty Winds 10+ IFR Clouds BROKEN at 900, BROKEN at 1700, OVERCAST at 2400, OVERCAST at 30000 KPIE 100639Z AUTO 28013G21KT 10SM +RA BKN009 BKN017 OVC024 22/22 A2987 RMK AO2 WSHFT 0622 LTG DSNT N AND NW RAB35 CIG 006V013 P0007 T02220222 $
2024-03-03 10:23:00Z 100° at 3 kts Thunderstorms 10+ VFR Clouds FEW at 1700, BROKEN at 7000, OVERCAST at 9000, OVERCAST at 5500 KPIE 031023Z AUTO 10003KT 10SM TS FEW017 BKN070 OVC090 21/21 A3008 RMK AO2 LTG DSNT W AND NW RAB10E21 TSB20 P0000 T02060206
2024-02-18 14:53:00Z 50° at 10 kts Light Rain 4 IFR Clouds OVERCAST at 700, BROKEN at 2000, OVERCAST at 3700, FEW at 1500 KPIE 181453Z 05010KT 4SM -RA BR OVC007 15/15 A2995 RMK AO2 SLP142 P0012 60019 T01500150 51006
2024-02-18 04:53:00Z 80° at 7 kts Light Rain 2 IFR Clouds BROKEN at 700, BROKEN at 1400, OVERCAST at 2500, FEW at 1500 KPIE 180453Z AUTO 08007KT 2SM -RA BR BKN007 BKN014 OVC025 15/15 A2994 RMK AO2 SLP139 P0020 T01500150 401830144
2024-02-17 21:31:00Z 30° at 11 kts, Gusting to 19 kts Light Rain, Gusty Winds 1 IFR Clouds OVERCAST at 600, BROKEN at 3900, OVERCAST at 6000 KPIE 172131Z 03011G19KT 1SM R18/P6000FT -RA BR OVC006 16/16 A2985 RMK AO2 RAB2059 CIG 005V009 P0006 T01610161
2024-02-17 18:53:00Z 40° at 8 kts Light Rain 1 IFR Clouds BROKEN at 500, BROKEN at 2800, OVERCAST at 4900 KPIE 171853Z 04008KT 1SM R18/P6000FT -RA BR BKN005 16/16 A2987 RMK AO2 RAB02 SLP113 P0007 T01610161
2024-02-17 18:24:00Z 50° at 8 kts Heavy Rain 1 IFR Clouds BROKEN at 700, OVERCAST at 4500, BROKEN at 10000, OVERCAST at 14000 KPIE 171824Z 05008KT 1SM R18/4500VP6000FT +RA BR BKN007 16/16 A2987 RMK AO2 RAB02 P0004 T01610161